Piti, Guam
Current Conditions -  °F | °C
As of 7:54 PM on Friday 31 Oct 2014 (Local Time) from PGUM Reporting Station
Light Rain Light Rain  
Wind Chill: 78°   Ceiling: 5500
Heat Index: 81°   Visibility: 7mi
Dew Point: 76°   Wind: 0mph
Humidity: 93%   Direction: NA
Pressure: 29.81"   Gusts: NA
Location:  13.46°N, 144.69°E
Report Text: PGUM 310954Z 00000KT 7SM -RA FEW018 BKN055 BKN085 26/24 A2981 RMK AO2 RAE09B38 SLP087 P0000 T02560244
Loading
Personal Weather Stations






























Interactive Weather Map
Tropical Storm Tracking
New forecast layout! Learn more

10-Day Weather Forecast

Advertisements
Track Severe Weather on mobile